createdAt,value
2019-02-26T00:02:25.933Z,14.33
2019-02-26T00:04:56.387Z,14.13
2019-02-26T00:07:29.850Z,14.87
2019-02-26T00:09:59.622Z,14.23
2019-02-26T00:12:31.011Z,12.40
2019-02-26T00:15:02.527Z,13.37
2019-02-26T00:17:38.600Z,12.30
2019-02-26T00:20:05.769Z,12.60
2019-02-26T00:22:36.729Z,13.90
2019-02-26T00:25:08.523Z,14.23
2019-02-26T00:27:37.453Z,15.87
2019-02-26T00:30:10.962Z,14.47
2019-02-26T00:32:40.471Z,14.40
2019-02-26T00:35:12.197Z,13.33
2019-02-26T00:37:41.380Z,14.23
2019-02-26T00:40:12.388Z,14.13
2019-02-26T00:42:41.531Z,14.80
2019-02-26T00:45:13.575Z,14.23
2019-02-26T00:47:43.566Z,14.17
2019-02-26T00:50:16.430Z,13.90
2019-02-26T00:52:45.569Z,14.00
2019-02-26T00:55:15.450Z,12.57
2019-02-26T00:57:46.354Z,13.60
2019-02-26T01:00:15.919Z,14.20
2019-02-26T01:02:46.927Z,13.70
2019-02-26T01:05:16.759Z,13.87
2019-02-26T01:07:50.227Z,14.93
2019-02-26T01:10:21.102Z,14.63
2019-02-26T01:12:50.896Z,13.93
2019-02-26T01:15:20.443Z,13.67
2019-02-26T01:17:49.566Z,14.07
2019-02-26T01:20:19.595Z,13.70
2019-02-26T01:22:49.689Z,14.07
2019-02-26T01:25:21.054Z,13.67
2019-02-26T01:27:51.127Z,13.80
2019-02-26T01:30:23.863Z,14.67
2019-02-26T01:32:51.709Z,14.43
2019-02-26T01:35:21.264Z,14.23
2019-02-26T01:37:51.467Z,14.47
2019-02-26T01:40:23.447Z,14.83
2019-02-26T01:42:54.984Z,15.20
2019-02-26T01:45:29.843Z,15.40
2019-02-26T01:47:59.831Z,16.03
2019-02-26T01:50:30.752Z,15.33
2019-02-26T01:53:01.353Z,15.17
2019-02-26T01:55:30.461Z,15.47
2019-02-26T01:57:59.602Z,16.03
2019-02-26T02:00:28.871Z,15.83
2019-02-26T02:03:00.074Z,16.47
2019-02-26T02:05:31.295Z,16.27
2019-02-26T02:08:00.175Z,16.77
2019-02-26T02:10:29.318Z,17.00
2019-02-26T02:13:00.296Z,17.03
2019-02-26T02:15:29.617Z,17.53
2019-02-26T02:17:59.537Z,17.40
2019-02-26T02:20:29.586Z,18.13
2019-02-26T02:23:00.478Z,18.30
2019-02-26T02:25:33.242Z,17.77
2019-02-26T02:28:02.807Z,17.80
2019-02-26T02:30:35.431Z,17.10
2019-02-26T02:33:07.938Z,16.70
2019-02-26T02:35:37.063Z,16.87
2019-02-26T02:38:06.302Z,18.10
2019-02-26T02:40:38.050Z,18.27
2019-02-26T02:43:09.815Z,18.60
2019-02-26T02:45:37.251Z,17.17
2019-02-26T02:48:09.209Z,17.63
2019-02-26T02:50:39.114Z,16.87
2019-02-26T02:53:08.272Z,17.50
2019-02-26T02:55:37.919Z,17.27
2019-02-26T02:58:13.054Z,17.27
2019-02-26T03:00:43.701Z,17.30
2019-02-26T03:03:16.155Z,17.17
2019-02-26T03:05:45.889Z,18.60
2019-02-26T03:08:16.340Z,17.10
2019-02-26T03:10:46.011Z,17.27
2019-02-26T03:13:16.961Z,18.63
2019-02-26T03:15:47.502Z,18.87
2019-02-26T03:18:18.205Z,17.63
2019-02-26T03:20:47.336Z,18.37
2019-02-26T03:23:19.781Z,20.00
2019-02-26T03:25:49.879Z,19.63
2019-02-26T03:28:20.014Z,18.83
2019-02-26T03:30:49.722Z,19.60
2019-02-26T03:33:18.842Z,18.83
2019-02-26T03:35:47.928Z,19.17
2019-02-26T03:38:18.098Z,19.47
2019-02-26T03:40:49.311Z,20.73
2019-02-26T03:43:18.725Z,21.40
2019-02-26T03:45:48.207Z,20.80
2019-02-26T03:48:20.330Z,22.00
2019-02-26T03:50:49.420Z,20.00
2019-02-26T03:53:18.563Z,20.23
2019-02-26T03:55:47.922Z,20.83
2019-02-26T03:58:17.365Z,20.77
2019-02-26T04:00:46.989Z,20.07
2019-02-26T04:03:17.551Z,21.27
2019-02-26T04:05:48.141Z,21.40
2019-02-26T04:08:19.948Z,22.83
2019-02-26T04:10:49.952Z,21.10
2019-02-26T04:13:19.527Z,20.10
2019-02-26T04:15:53.294Z,21.27
2019-02-26T04:18:21.637Z,20.87
2019-02-26T04:20:50.890Z,21.33
2019-02-26T04:23:21.958Z,21.90
2019-02-26T04:26:32.258Z,19.27
2019-02-26T04:29:41.728Z,18.03
2019-02-26T04:32:30.778Z,18.87
2019-02-26T04:35:32.750Z,20.17
2019-02-26T04:38:31.103Z,19.60
2019-02-26T04:41:25.393Z,19.53
2019-02-26T04:44:31.249Z,22.03
2019-02-26T04:47:24.189Z,22.43
2019-02-26T04:49:57.188Z,22.33
2019-02-26T04:52:25.696Z,21.23
2019-02-26T04:54:54.795Z,22.07
2019-02-26T04:57:26.257Z,22.17
2019-02-26T04:59:56.295Z,22.33
2019-02-26T05:02:28.592Z,20.73
2019-02-26T05:04:57.738Z,20.83
2019-02-26T05:07:27.383Z,21.10
2019-02-26T05:09:58.940Z,19.80
2019-02-26T05:12:30.382Z,19.47
2019-02-26T05:14:58.721Z,19.43
2019-02-26T05:17:30.756Z,19.87
2019-02-26T05:20:03.597Z,20.57
2019-02-26T05:22:33.367Z,20.73
2019-02-26T05:25:06.897Z,20.10
2019-02-26T05:27:36.465Z,20.07
2019-02-26T05:30:09.433Z,19.80
2019-02-26T05:32:37.879Z,20.07
2019-02-26T05:35:07.332Z,17.60
2019-02-26T05:37:40.188Z,17.23
2019-02-26T05:40:10.744Z,18.00
2019-02-26T05:42:43.201Z,18.93
2019-02-26T05:45:12.407Z,19.43
2019-02-26T05:47:43.086Z,22.87
2019-02-26T05:50:16.167Z,22.53
2019-02-26T05:52:43.914Z,22.30
2019-02-26T05:55:14.607Z,22.33
2019-02-26T05:57:44.134Z,23.33
2019-02-26T06:00:14.548Z,22.03
2019-02-26T06:02:47.297Z,22.57
2019-02-26T06:05:18.408Z,21.97
2019-02-26T06:07:47.764Z,20.87
2019-02-26T06:10:18.914Z,22.53
2019-02-26T06:12:47.738Z,20.83
2019-02-26T06:15:20.219Z,21.97
2019-02-26T06:17:51.460Z,20.20
2019-02-26T06:20:23.430Z,20.50
2019-02-26T06:22:52.254Z,20.87
2019-02-26T06:25:24.431Z,23.07
2019-02-26T06:27:52.441Z,21.97
2019-02-26T06:30:24.014Z,21.33
2019-02-26T06:32:59.576Z,21.80
2019-02-26T06:35:26.846Z,23.27
2019-02-26T06:37:55.967Z,22.03
2019-02-26T06:40:26.769Z,22.53
2019-02-26T06:42:57.105Z,23.90
2019-02-26T06:45:28.349Z,22.63
2019-02-26T06:47:59.415Z,21.80
2019-02-26T06:50:28.533Z,21.67
2019-02-26T06:52:57.630Z,20.97
2019-02-26T06:55:28.039Z,20.83
2019-02-26T06:58:20.505Z,21.53
2019-02-26T07:00:54.681Z,21.10
2019-02-26T07:03:24.154Z,21.70
2019-02-26T07:05:51.262Z,21.50
2019-02-26T07:08:21.938Z,19.30
2019-02-26T07:10:51.269Z,19.03
2019-02-26T07:13:20.400Z,19.53
2019-02-26T07:15:49.553Z,19.57
2019-02-26T07:18:19.667Z,19.63
2019-02-26T07:20:50.689Z,22.83
2019-02-26T07:23:22.374Z,22.13
2019-02-26T07:25:53.584Z,22.43
2019-02-26T07:28:26.873Z,21.33
2019-02-26T07:30:56.704Z,20.57
2019-02-26T07:33:27.411Z,21.03
2019-02-26T07:35:59.423Z,21.17
2019-02-26T07:38:29.795Z,20.60
2019-02-26T07:41:01.275Z,20.53
2019-02-26T07:43:29.931Z,20.63
2019-02-26T07:45:59.070Z,20.93
2019-02-26T07:48:29.515Z,20.30
2019-02-26T07:50:59.158Z,18.57
2019-02-26T07:53:29.907Z,19.00
2019-02-26T07:56:01.247Z,18.93
2019-02-26T07:58:33.929Z,18.47
2019-02-26T08:01:03.869Z,19.50
2019-02-26T08:03:33.089Z,18.10
2019-02-26T08:06:06.756Z,19.90
2019-02-26T08:08:36.950Z,19.20
2019-02-26T08:11:06.004Z,18.73
2019-02-26T08:13:36.602Z,16.70
2019-02-26T08:16:05.813Z,17.33
2019-02-26T08:18:36.819Z,18.07
2019-02-26T08:21:05.913Z,17.97
2019-02-26T08:23:36.670Z,18.17
2019-02-26T08:26:06.787Z,18.13
2019-02-26T08:28:36.983Z,18.00
2019-02-26T08:31:07.001Z,16.77
2019-02-26T08:33:36.145Z,17.50
2019-02-26T08:36:05.238Z,17.00
2019-02-26T08:38:36.532Z,17.60
2019-02-26T08:41:06.011Z,16.80
2019-02-26T08:43:35.262Z,18.23
2019-02-26T08:46:06.748Z,18.30
2019-02-26T08:48:35.591Z,17.20
2019-02-26T08:51:06.159Z,17.97
2019-02-26T08:53:35.675Z,17.37
2019-02-26T08:56:04.798Z,17.27
2019-02-26T08:58:33.964Z,17.17
2019-02-26T09:01:03.148Z,16.50
2019-02-26T09:03:40.311Z,18.07
2019-02-26T09:06:12.768Z,17.50
2019-02-26T09:08:38.609Z,16.60
2019-02-26T09:11:13.359Z,17.57
2019-02-26T09:13:43.886Z,17.27
2019-02-26T09:16:14.999Z,17.37
2019-02-26T09:18:46.033Z,18.27
2019-02-26T09:21:15.299Z,17.10
2019-02-26T09:23:49.527Z,16.67
2019-02-26T09:26:17.799Z,16.83
2019-02-26T09:28:48.172Z,16.40
2019-02-26T09:31:17.797Z,16.63
2019-02-26T09:33:46.921Z,17.17
2019-02-26T09:36:20.442Z,16.47
2019-02-26T09:38:48.655Z,17.20
2019-02-26T09:41:19.411Z,18.00
2019-02-26T09:43:48.655Z,17.80
2019-02-26T09:46:19.334Z,17.43
2019-02-26T09:48:48.554Z,17.33
2019-02-26T09:51:17.814Z,17.13
2019-02-26T09:53:47.648Z,16.80
2019-02-26T09:56:17.794Z,17.00
2019-02-26T09:58:48.363Z,17.67
2019-02-26T10:01:19.450Z,16.47
2019-02-26T10:03:48.611Z,18.10
2019-02-26T10:06:19.212Z,15.87
2019-02-26T10:08:50.807Z,16.97
2019-02-26T10:11:21.252Z,16.40
2019-02-26T10:13:51.210Z,16.27
2019-02-26T10:16:21.665Z,15.97
2019-02-26T10:18:52.537Z,16.00
2019-02-26T10:21:22.217Z,15.77
2019-02-26T10:23:52.181Z,15.70
2019-02-26T10:26:26.399Z,16.73
2019-02-26T10:28:59.036Z,15.80
2019-02-26T10:31:27.679Z,15.77
2019-02-26T10:33:57.003Z,16.70
2019-02-26T10:36:30.270Z,16.57
2019-02-26T10:38:57.759Z,15.90
2019-02-26T10:41:27.886Z,15.50
2019-02-26T10:43:57.037Z,15.00
2019-02-26T10:46:26.165Z,16.23
2019-02-26T10:48:55.337Z,15.73
2019-02-26T10:51:27.045Z,16.57
2019-02-26T10:53:59.610Z,15.80
2019-02-26T10:56:28.695Z,18.03
2019-02-26T10:59:01.987Z,17.50
2019-02-26T11:01:30.480Z,17.13
2019-02-26T11:03:58.901Z,16.23
2019-02-26T11:06:30.409Z,17.03
2019-02-26T11:09:01.776Z,16.47
2019-02-26T11:11:30.605Z,16.63
2019-02-26T11:14:00.721Z,16.83
2019-02-26T11:16:31.029Z,17.10
2019-02-26T11:19:02.420Z,16.33
2019-02-26T11:21:31.728Z,16.53
2019-02-26T11:24:03.516Z,18.03
2019-02-26T11:26:35.212Z,18.23
2019-02-26T11:29:03.404Z,18.53
2019-02-26T11:31:36.425Z,17.70
2019-02-26T11:34:07.301Z,17.57
2019-02-26T11:36:38.279Z,18.03
2019-02-26T11:39:09.992Z,18.60
2019-02-26T11:41:44.552Z,18.20
2019-02-26T11:44:17.607Z,19.57
2019-02-26T11:46:48.174Z,19.20
2019-02-26T11:49:16.952Z,19.13
2019-02-26T11:51:47.389Z,19.40
2019-02-26T11:54:23.805Z,20.07
2019-02-26T11:56:53.056Z,20.20
2019-02-26T11:59:22.187Z,21.07
2019-02-26T12:01:51.397Z,19.30
2019-02-26T12:04:23.366Z,18.93
2019-02-26T12:06:52.571Z,19.17
2019-02-26T12:09:23.093Z,20.27
2019-02-26T12:11:53.778Z,19.80
2019-02-26T12:14:24.913Z,20.17
2019-02-26T12:16:54.380Z,20.40
2019-02-26T12:19:25.502Z,20.03
2019-02-26T12:21:57.298Z,20.57
2019-02-26T12:24:26.670Z,21.40
2019-02-26T12:26:57.819Z,20.63
2019-02-26T12:29:29.862Z,18.73
2019-02-26T12:32:04.783Z,18.67
2019-02-26T12:34:35.202Z,16.70
2019-02-26T12:37:06.621Z,16.97
2019-02-26T12:39:36.948Z,18.57
2019-02-26T12:42:10.642Z,18.80
2019-02-26T12:44:44.810Z,18.77
2019-02-26T12:47:15.439Z,18.80
2019-02-26T12:49:45.854Z,19.23
2019-02-26T12:52:17.797Z,19.20
2019-02-26T12:54:45.950Z,20.30
2019-02-26T12:57:16.964Z,17.57
2019-02-26T12:59:45.978Z,19.70
2019-02-26T13:02:17.144Z,18.77
2019-02-26T13:04:51.096Z,14.77
2019-02-26T13:07:19.183Z,16.63
2019-02-26T13:09:54.170Z,18.03
2019-02-26T13:12:23.279Z,16.40
2019-02-26T13:14:51.156Z,17.97
2019-02-26T13:17:26.137Z,18.37
2019-02-26T13:19:58.957Z,17.67
2019-02-26T13:22:26.130Z,17.30
2019-02-26T13:24:55.265Z,18.73
2019-02-26T13:27:24.477Z,17.23
2019-02-26T13:29:56.950Z,18.93
2019-02-26T13:32:32.296Z,18.53
2019-02-26T13:35:00.797Z,20.23
2019-02-26T13:37:32.456Z,20.53
2019-02-26T13:40:00.215Z,20.57
2019-02-26T13:42:29.640Z,20.43
2019-02-26T13:44:58.767Z,20.10
2019-02-26T13:47:27.898Z,19.40
2019-02-26T13:49:57.234Z,19.83
2019-02-26T13:52:26.500Z,19.77
2019-02-26T13:54:55.922Z,20.40
2019-02-26T13:57:26.427Z,18.83
2019-02-26T13:59:56.341Z,17.93
2019-02-26T14:02:26.078Z,18.80
2019-02-26T14:04:55.200Z,19.13
2019-02-26T14:07:25.602Z,17.77
2019-02-26T14:09:55.115Z,16.60
2019-02-26T14:12:26.147Z,17.27
2019-02-26T14:14:55.691Z,18.20
2019-02-26T14:17:24.901Z,19.43
2019-02-26T14:19:55.403Z,18.00
2019-02-26T14:22:27.819Z,17.77
2019-02-26T14:24:56.603Z,18.33
2019-02-26T14:27:25.755Z,17.73
2019-02-26T14:29:54.978Z,17.27
2019-02-26T14:32:24.121Z,17.87
2019-02-26T14:34:53.360Z,18.17
2019-02-26T14:37:22.605Z,18.40
2019-02-26T14:39:51.734Z,17.17
2019-02-26T14:42:21.682Z,15.97
2019-02-26T14:44:56.114Z,14.67
2019-02-26T14:47:30.022Z,14.77
2019-02-26T14:49:59.638Z,13.93
2019-02-26T14:52:51.114Z,13.77
2019-02-26T14:55:30.127Z,13.13
2019-02-26T14:58:03.427Z,12.80
2019-02-26T15:00:36.214Z,12.80
2019-02-26T15:03:09.538Z,11.67
2019-02-26T15:05:47.508Z,11.83
2019-02-26T15:08:18.014Z,11.07
2019-02-26T15:10:48.156Z,12.00
2019-02-26T15:13:19.052Z,12.03
2019-02-26T15:15:49.587Z,12.63
2019-02-26T15:18:21.021Z,12.60
2019-02-26T15:20:52.984Z,13.47
2019-02-26T15:23:23.580Z,13.77
2019-02-26T15:25:52.866Z,13.77
2019-02-26T15:28:22.057Z,13.77
2019-02-26T15:30:51.294Z,14.67
2019-02-26T15:33:20.446Z,14.80
2019-02-26T15:35:49.661Z,13.50
2019-02-26T15:38:18.821Z,14.23
2019-02-26T15:40:47.979Z,13.40
2019-02-26T15:43:17.489Z,13.63
2019-02-26T15:45:51.911Z,13.20
2019-02-26T15:48:17.659Z,11.00
2019-02-26T15:50:46.959Z,9.53
2019-02-26T15:53:16.949Z,9.20
2019-02-26T15:55:47.257Z,9.50
2019-02-26T15:58:18.672Z,8.50
2019-02-26T16:00:49.675Z,8.37
2019-02-26T16:03:19.237Z,8.30
2019-02-26T16:05:48.585Z,8.33
2019-02-26T16:08:17.777Z,8.50
2019-02-26T16:10:46.905Z,7.10
2019-02-26T16:13:16.077Z,7.60
2019-02-26T16:15:45.261Z,7.67
2019-02-26T16:18:14.851Z,7.77
2019-02-26T16:20:44.070Z,8.03
2019-02-26T16:23:13.262Z,7.87
2019-02-26T16:25:42.467Z,8.00
2019-02-26T16:28:11.758Z,7.50
2019-02-26T16:30:41.004Z,8.33
2019-02-26T16:33:11.280Z,8.50
2019-02-26T16:35:41.052Z,8.77
2019-02-26T16:38:11.723Z,8.43
2019-02-26T16:40:40.997Z,8.63
2019-02-26T16:43:10.226Z,9.13
2019-02-26T16:45:39.302Z,8.80
2019-02-26T16:48:08.580Z,8.70
2019-02-26T16:50:37.918Z,9.53
2019-02-26T16:53:07.218Z,10.03
2019-02-26T16:55:36.424Z,9.73
2019-02-26T16:58:06.920Z,9.13
2019-02-26T17:00:36.082Z,10.33
2019-02-26T17:03:06.092Z,9.27
2019-02-26T17:05:35.474Z,13.00
2019-02-26T17:08:04.806Z,10.00
2019-02-26T17:10:34.051Z,10.57
2019-02-26T17:13:03.188Z,10.30
2019-02-26T17:15:32.554Z,10.23
2019-02-26T17:18:01.879Z,9.93
2019-02-26T17:20:31.585Z,10.10
2019-02-26T17:23:00.743Z,11.03
2019-02-26T17:25:29.945Z,9.90
2019-02-26T17:27:59.087Z,10.23
2019-02-26T17:30:28.209Z,10.37
2019-02-26T17:32:57.459Z,10.30
2019-02-26T17:35:29.067Z,11.07
2019-02-26T17:37:57.463Z,15.80
2019-02-26T17:40:26.813Z,12.63
2019-02-26T17:42:55.980Z,12.40
2019-02-26T17:45:27.621Z,12.27
2019-02-26T17:47:57.512Z,13.27
2019-02-26T17:50:31.789Z,13.47
2019-02-26T17:53:03.960Z,14.50
2019-02-26T17:55:38.440Z,13.90
2019-02-26T17:58:10.561Z,13.50
2019-02-26T18:00:41.068Z,12.77
2019-02-26T18:03:10.166Z,15.10
2019-02-26T18:05:50.918Z,13.40
2019-02-26T18:08:18.817Z,13.57
2019-02-26T18:10:46.316Z,12.80
2019-02-26T18:13:21.285Z,13.87
2019-02-26T18:15:56.859Z,13.20
2019-02-26T18:18:24.910Z,12.33
2019-02-26T18:20:54.098Z,13.73
2019-02-26T18:23:24.810Z,13.57
2019-02-26T18:25:54.252Z,13.27
2019-02-26T18:28:23.497Z,13.90
2019-02-26T18:30:52.629Z,14.60
2019-02-26T18:33:22.656Z,15.40
2019-02-26T18:35:51.721Z,15.73
2019-02-26T18:38:20.857Z,15.90
2019-02-26T18:40:50.039Z,16.00
2019-02-26T18:43:24.357Z,16.10
2019-02-26T18:45:55.367Z,14.07
2019-02-26T18:48:25.763Z,16.20
2019-02-26T18:50:55.186Z,15.87
2019-02-26T18:53:25.495Z,15.83
2019-02-26T18:55:57.488Z,16.77
2019-02-26T18:58:27.483Z,16.10
2019-02-26T19:00:58.767Z,18.10
2019-02-26T19:03:29.603Z,17.83
2019-02-26T19:05:59.153Z,18.47
2019-02-26T19:08:28.588Z,19.77
2019-02-26T19:10:57.820Z,19.17
2019-02-26T19:13:27.780Z,20.53
2019-02-26T19:16:01.089Z,21.63
2019-02-26T19:18:30.546Z,22.23
2019-02-26T19:20:59.709Z,20.83
2019-02-26T19:23:31.823Z,21.07
2019-02-26T19:26:01.454Z,22.23
2019-02-26T19:28:30.893Z,23.00
2019-02-26T19:31:00.319Z,21.63
2019-02-26T19:33:29.491Z,21.23
2019-02-26T19:36:00.871Z,19.97
2019-02-26T19:38:30.269Z,20.60
2019-02-26T19:41:02.201Z,24.00
2019-02-26T19:43:32.665Z,24.00
2019-02-26T19:46:06.190Z,25.00
2019-02-26T19:48:39.357Z,24.43
2019-02-26T19:51:08.507Z,26.27
2019-02-26T19:53:40.238Z,24.93
2019-02-26T19:56:11.850Z,24.50
2019-02-26T19:58:51.501Z,23.40
2019-02-26T20:01:25.820Z,22.57
2019-02-26T20:04:14.724Z,23.57
2019-02-26T20:06:45.248Z,24.60
2019-02-26T20:09:23.368Z,25.53
2019-02-26T20:11:53.586Z,26.40
2019-02-26T20:14:29.506Z,26.97
2019-02-26T20:17:13.777Z,27.87
2019-02-26T20:19:32.439Z,26.00
2019-02-26T20:22:01.642Z,24.80
2019-02-26T20:24:30.788Z,25.80
2019-02-26T20:27:00.078Z,24.47
2019-02-26T20:29:29.503Z,24.63
2019-02-26T20:31:58.666Z,23.27
2019-02-26T20:34:36.846Z,22.87
2019-02-26T20:37:17.956Z,22.97
2019-02-26T20:39:51.811Z,23.50
2019-02-26T20:42:21.157Z,23.40
2019-02-26T20:44:58.779Z,22.97
2019-02-26T20:47:21.922Z,22.40
2019-02-26T20:49:55.311Z,24.63
2019-02-26T20:52:24.945Z,22.63
2019-02-26T20:54:54.256Z,21.73
2019-02-26T20:57:25.862Z,22.43
2019-02-26T20:59:55.481Z,20.73
2019-02-26T21:02:26.628Z,22.50
2019-02-26T21:04:56.042Z,19.90
2019-02-26T21:07:25.255Z,20.63
2019-02-26T21:10:03.341Z,20.77
2019-02-26T21:12:28.583Z,21.07
2019-02-26T21:14:56.612Z,20.07
2019-02-26T21:17:26.343Z,21.87
2019-02-26T21:19:55.986Z,21.73
2019-02-26T21:22:25.342Z,21.70
2019-02-26T21:24:55.562Z,22.67
2019-02-26T21:27:25.914Z,22.47
2019-02-26T21:29:57.035Z,21.70
2019-02-26T21:32:27.091Z,22.00
2019-02-26T21:34:56.357Z,21.67
2019-02-26T21:37:25.765Z,21.90
2019-02-26T21:39:55.175Z,22.00
2019-02-26T21:42:24.457Z,19.90
2019-02-26T21:44:53.978Z,20.83
2019-02-26T21:47:23.281Z,20.80
2019-02-26T21:49:52.499Z,21.20
2019-02-26T21:52:21.930Z,20.53
2019-02-26T21:54:51.349Z,21.03
2019-02-26T21:57:21.654Z,21.83
2019-02-26T21:59:51.571Z,20.93
2019-02-26T22:02:20.933Z,22.77
2019-02-26T22:04:50.337Z,22.23
2019-02-26T22:07:19.860Z,21.73
2019-02-26T22:09:49.545Z,23.00
2019-02-26T22:12:18.731Z,23.27
2019-02-26T22:14:48.141Z,21.00
2019-02-26T22:17:17.239Z,20.33
2019-02-26T22:19:46.497Z,21.57
2019-02-26T22:22:15.588Z,20.53
2019-02-26T22:24:46.123Z,21.20
2019-02-26T22:27:15.616Z,21.00
2019-02-26T22:29:47.915Z,20.50
2019-02-26T22:32:15.633Z,20.80
2019-02-26T22:34:44.850Z,21.83
2019-02-26T22:37:14.028Z,22.20
2019-02-26T22:39:43.226Z,22.50
2019-02-26T22:42:12.512Z,21.77
2019-02-26T22:44:43.312Z,21.27
2019-02-26T22:47:13.622Z,22.07
2019-02-26T22:49:42.904Z,21.23
2019-02-26T22:52:12.306Z,20.10
2019-02-26T22:54:43.524Z,19.97
2019-02-26T22:57:14.035Z,20.73
2019-02-26T22:59:44.734Z,21.10
2019-02-26T23:02:15.554Z,20.23
2019-02-26T23:04:45.099Z,20.90
2019-02-26T23:07:14.769Z,21.13
2019-02-26T23:09:44.065Z,22.77
2019-02-26T23:12:13.549Z,21.90
2019-02-26T23:14:42.701Z,21.43
2019-02-26T23:17:12.403Z,21.87
2019-02-26T23:19:41.509Z,21.60
2019-02-26T23:22:10.695Z,22.87
2019-02-26T23:24:39.895Z,20.77
2019-02-26T23:27:09.369Z,18.93
2019-02-26T23:29:42.203Z,19.70
2019-02-26T23:32:11.396Z,20.80
2019-02-26T23:34:43.898Z,20.37
2019-02-26T23:37:13.260Z,19.67
2019-02-26T23:39:42.422Z,22.87
2019-02-26T23:42:11.856Z,22.77
2019-02-26T23:44:41.224Z,22.60
2019-02-26T23:47:10.436Z,21.50
2019-02-26T23:49:40.680Z,23.23
2019-02-26T23:52:13.801Z,23.30
2019-02-26T23:54:43.820Z,23.37
2019-02-26T23:57:13.282Z,22.87
2019-02-26T23:59:44.396Z,23.50
